createdAt,value
2022-12-01T00:02:09.228Z,101734.80
2022-12-01T00:07:19.097Z,101731.20
2022-12-01T00:12:28.635Z,101732.20
2022-12-01T00:17:38.024Z,101732.40
2022-12-01T00:22:50.377Z,101730.00
2022-12-01T00:28:00.184Z,101732.80
2022-12-01T00:33:09.893Z,101734.60
2022-12-01T00:38:19.657Z,101745.60
2022-12-01T00:43:29.191Z,101741.40
2022-12-01T00:48:38.804Z,101738.80
2022-12-01T00:53:48.375Z,101739.20
2022-12-01T00:58:57.772Z,101737.40
2022-12-01T01:04:07.463Z,101725.20
2022-12-01T01:09:18.126Z,101729.40
2022-12-01T01:14:27.894Z,101718.20
2022-12-01T01:19:37.478Z,101724.00
2022-12-01T01:24:46.879Z,101717.20
2022-12-01T01:29:56.361Z,101716.00
2022-12-01T01:35:06.152Z,101710.60
2022-12-01T01:40:16.968Z,101704.60
2022-12-01T01:45:30.797Z,101701.80
2022-12-01T01:50:40.538Z,101711.60
2022-12-01T01:55:50.197Z,101710.40
2022-12-01T02:00:59.936Z,101705.80
2022-12-01T02:06:11.104Z,101699.40
2022-12-01T02:11:53.600Z,101702.80
2022-12-01T02:17:19.521Z,101699.40
2022-12-01T02:22:43.215Z,101704.20
2022-12-01T02:28:17.261Z,101706.40
2022-12-01T02:33:36.948Z,101709.80
2022-12-01T02:38:57.761Z,101712.40
2022-12-01T02:44:15.616Z,101720.00
2022-12-01T02:49:32.100Z,101714.80
2022-12-01T02:54:42.885Z,101719.20
2022-12-01T02:59:56.671Z,101716.60
2022-12-01T03:05:15.558Z,101718.20
2022-12-01T03:10:41.205Z,101716.20
2022-12-01T03:16:00.245Z,101713.40
2022-12-01T03:21:15.400Z,101708.60
2022-12-01T03:26:30.871Z,101702.20
2022-12-01T03:31:46.279Z,101710.20
2022-12-01T03:37:02.820Z,101704.80
2022-12-01T03:42:19.244Z,101711.60
2022-12-01T03:47:32.682Z,101718.20
2022-12-01T03:52:51.106Z,101713.60
2022-12-01T03:58:05.919Z,101717.40
2022-12-01T04:03:25.172Z,101720.40
2022-12-01T04:08:37.156Z,101721.20
2022-12-01T04:13:46.722Z,101718.80
2022-12-01T04:18:56.256Z,101714.60
2022-12-01T04:24:05.962Z,101717.80
2022-12-01T04:29:16.512Z,101715.80
2022-12-01T04:34:26.118Z,101709.00
2022-12-01T04:39:35.988Z,101701.20
2022-12-01T04:44:45.592Z,101701.40
2022-12-01T04:49:55.331Z,101707.20
2022-12-01T04:55:05.306Z,101710.80
2022-12-01T05:00:18.441Z,101710.80
2022-12-01T05:05:28.467Z,101717.60
2022-12-01T05:10:40.766Z,101712.00
2022-12-01T05:15:52.333Z,101710.00
2022-12-01T05:21:04.232Z,101707.80
2022-12-01T05:26:17.749Z,101717.20
2022-12-01T05:31:27.252Z,101720.00
2022-12-01T05:36:39.340Z,101712.40
2022-12-01T05:41:49.023Z,101719.80
2022-12-01T05:46:58.531Z,101723.40
2022-12-01T05:52:08.309Z,101720.60
2022-12-01T05:57:17.705Z,101720.40
2022-12-01T06:02:28.109Z,101725.20
2022-12-01T06:07:40.531Z,101729.20
2022-12-01T06:12:50.463Z,101729.00
2022-12-01T06:18:04.298Z,101722.20
2022-12-01T06:23:13.955Z,101720.80
2022-12-01T06:28:24.030Z,101720.00
2022-12-01T06:33:33.863Z,101735.00
2022-12-01T06:38:43.623Z,101735.00
2022-12-01T06:43:53.106Z,101739.80
2022-12-01T06:49:02.575Z,101730.40
2022-12-01T06:54:14.709Z,101735.00
2022-12-01T06:59:24.930Z,101742.20
2022-12-01T07:04:35.531Z,101732.40
2022-12-01T07:09:44.979Z,101729.60
2022-12-01T07:14:54.593Z,101730.80
2022-12-01T07:20:04.323Z,101733.20
2022-12-01T07:25:14.530Z,101748.20
2022-12-01T07:30:28.374Z,101735.40
2022-12-01T07:35:38.257Z,101740.80
2022-12-01T07:40:47.771Z,101747.00
2022-12-01T07:45:57.588Z,101738.80
2022-12-01T07:51:08.212Z,101744.00
2022-12-01T07:56:18.402Z,101748.60
2022-12-01T08:01:28.696Z,101742.80
2022-12-01T08:06:38.254Z,101734.00
2022-12-01T08:11:47.809Z,101742.40
2022-12-01T08:16:57.779Z,101737.00
2022-12-01T08:22:07.416Z,101740.20
2022-12-01T08:27:17.022Z,101745.00
2022-12-01T08:32:26.672Z,101745.60
2022-12-01T08:37:36.149Z,101744.60
2022-12-01T08:42:45.672Z,101748.40
2022-12-01T08:47:59.118Z,101755.40
2022-12-01T08:53:09.016Z,101745.00
2022-12-01T08:58:18.681Z,101757.00
2022-12-01T09:03:28.271Z,101755.20
2022-12-01T09:08:38.976Z,101759.00
2022-12-01T09:13:54.467Z,101743.60
2022-12-01T09:19:04.749Z,101750.80
2022-12-01T09:24:16.298Z,101744.00
2022-12-01T09:29:26.080Z,101747.00
2022-12-01T09:34:35.467Z,101736.00
2022-12-01T09:39:44.777Z,101733.80
2022-12-01T09:44:58.478Z,101727.80
2022-12-01T09:50:16.310Z,101735.60
2022-12-01T09:55:27.770Z,101722.00
2022-12-01T10:00:43.925Z,101729.80
2022-12-01T10:11:37.568Z,101726.20
2022-12-01T10:17:01.449Z,101722.80
2022-12-01T10:22:55.955Z,101730.40
2022-12-01T10:28:26.842Z,101720.80
2022-12-01T10:33:56.449Z,101718.60
2022-12-01T10:39:08.157Z,101709.40
2022-12-01T10:44:20.891Z,101714.20
2022-12-01T10:49:42.320Z,101705.80
2022-12-01T10:54:51.906Z,101716.40
2022-12-01T11:00:06.142Z,101714.00
2022-12-01T11:05:29.425Z,101710.20
2022-12-01T11:10:40.530Z,101707.80
2022-12-01T11:15:57.559Z,101716.60
2022-12-01T11:21:17.660Z,101706.00
2022-12-01T11:26:32.486Z,101705.80
2022-12-01T11:31:47.308Z,101706.80
2022-12-01T11:37:02.032Z,101701.80
2022-12-01T11:42:26.710Z,101700.20
2022-12-01T11:47:36.229Z,101703.80
2022-12-01T11:52:52.131Z,101693.80
2022-12-01T11:58:05.743Z,101693.40
2022-12-01T12:03:26.591Z,101693.20
2022-12-01T12:08:58.289Z,101690.20
2022-12-01T12:14:32.996Z,101688.20
2022-12-01T12:20:17.331Z,101683.00
2022-12-01T12:25:47.419Z,101685.80
2022-12-01T12:31:10.738Z,101679.00
2022-12-01T12:36:37.503Z,101681.40
2022-12-01T12:41:53.765Z,101677.80
2022-12-01T12:47:20.613Z,101673.40
2022-12-01T12:52:38.154Z,101675.20
2022-12-01T12:57:54.480Z,101665.00
2022-12-01T13:03:14.781Z,101656.60
2022-12-01T13:08:31.015Z,101659.40
2022-12-01T13:13:48.458Z,101652.80
2022-12-01T13:19:05.267Z,101652.40
2022-12-01T13:24:23.354Z,101639.20
2022-12-01T13:29:45.286Z,101647.60
2022-12-01T13:34:55.055Z,101639.60
2022-12-01T13:40:24.033Z,101640.20
2022-12-01T13:45:38.845Z,101638.80
2022-12-01T13:51:08.632Z,101647.00
2022-12-01T13:56:47.352Z,101652.60
2022-12-01T14:02:19.980Z,101647.20
2022-12-01T14:07:37.198Z,101642.80
2022-12-01T14:12:50.359Z,101641.20
2022-12-01T14:18:09.707Z,101641.00
2022-12-01T14:23:31.415Z,101640.20
2022-12-01T14:29:33.923Z,101638.40
2022-12-01T14:34:44.137Z,101636.60
2022-12-01T14:40:04.713Z,101628.20
2022-12-01T14:45:21.967Z,101628.00
2022-12-01T14:50:46.203Z,101622.60
2022-12-01T14:56:01.026Z,101622.20
2022-12-01T15:01:15.325Z,101623.60
2022-12-01T15:06:28.607Z,101619.00
2022-12-01T15:11:40.445Z,101620.00
2022-12-01T15:16:50.193Z,101616.60
2022-12-01T15:22:00.391Z,101612.20
2022-12-01T15:27:28.168Z,101614.00
2022-12-01T15:32:43.359Z,101606.40
2022-12-01T15:37:54.224Z,101612.40
2022-12-01T15:43:17.251Z,101611.40
2022-12-01T15:48:35.652Z,101608.60
2022-12-01T15:53:51.492Z,101607.00
2022-12-01T15:59:15.659Z,101604.60
2022-12-01T16:04:28.333Z,101602.60
2022-12-01T16:09:41.581Z,101604.40
2022-12-01T16:15:13.449Z,101597.40
2022-12-01T16:20:32.838Z,101596.00
2022-12-01T16:25:45.456Z,101595.40
2022-12-01T16:30:56.310Z,101595.80
2022-12-01T16:36:07.051Z,101600.60
2022-12-01T16:41:38.285Z,101602.00
2022-12-01T16:46:48.398Z,101605.40
2022-12-01T16:51:59.342Z,101602.80
2022-12-01T16:57:13.434Z,101612.20
2022-12-01T17:02:23.316Z,101614.20
2022-12-01T17:07:33.406Z,101598.60
2022-12-01T17:12:43.239Z,101600.60
2022-12-01T17:17:53.204Z,101612.20
2022-12-01T17:23:03.288Z,101600.60
2022-12-01T17:28:12.795Z,101603.00
2022-12-01T17:33:22.257Z,101599.00
2022-12-01T17:38:31.778Z,101595.20
2022-12-01T17:43:42.859Z,101581.60
2022-12-01T17:48:52.427Z,101584.00
2022-12-01T17:54:01.958Z,101589.00
2022-12-01T17:59:11.890Z,101590.60
2022-12-01T18:04:21.626Z,101591.80
2022-12-01T18:09:30.974Z,101589.60
2022-12-01T18:14:41.006Z,101584.00
2022-12-01T18:19:50.788Z,101580.20
2022-12-01T18:25:00.133Z,101579.60
2022-12-01T18:30:12.606Z,101580.40
2022-12-01T18:35:23.098Z,101581.20
2022-12-01T18:40:37.289Z,101582.40
2022-12-01T18:45:46.849Z,101583.40
2022-12-01T18:50:59.675Z,101582.00
2022-12-01T18:56:12.322Z,101592.60
2022-12-01T19:01:30.511Z,101597.80
2022-12-01T19:06:43.885Z,101588.20
2022-12-01T19:11:59.941Z,101578.20
2022-12-01T19:17:09.688Z,101584.20
2022-12-01T19:22:19.354Z,101588.60
2022-12-01T19:27:30.544Z,101588.00
2022-12-01T19:32:40.417Z,101592.20
2022-12-01T19:37:50.546Z,101589.80
2022-12-01T19:43:00.141Z,101583.20
2022-12-01T19:48:10.759Z,101581.80
2022-12-01T19:53:20.219Z,101575.40
2022-12-01T19:58:29.712Z,101581.80
2022-12-01T20:03:40.755Z,101582.40
2022-12-01T20:08:51.249Z,101584.80
2022-12-01T20:14:01.051Z,101591.00
2022-12-01T20:19:11.626Z,101589.40
2022-12-01T20:24:23.021Z,101583.00
2022-12-01T20:29:34.018Z,101575.40
2022-12-01T20:34:43.594Z,101578.60
2022-12-01T20:39:53.374Z,101580.20
2022-12-01T20:45:02.852Z,101579.80
2022-12-01T20:50:13.621Z,101583.40
2022-12-01T20:55:24.627Z,101582.60
2022-12-01T21:00:35.010Z,101582.00
2022-12-01T21:05:46.367Z,101584.40
2022-12-01T21:10:56.127Z,101577.40
2022-12-01T21:16:13.682Z,101584.60
2022-12-01T21:21:31.093Z,101593.40
2022-12-01T21:26:43.046Z,101596.60
2022-12-01T21:31:56.461Z,101589.20
2022-12-01T21:37:18.519Z,101589.40
2022-12-01T21:42:32.611Z,101590.20
2022-12-01T21:47:42.593Z,101593.20
2022-12-01T21:52:52.957Z,101592.40
2022-12-01T21:58:02.623Z,101592.80
2022-12-01T22:03:37.678Z,101597.20
2022-12-01T22:08:53.172Z,101591.00
2022-12-01T22:14:16.838Z,101587.60
2022-12-01T22:19:32.933Z,101580.40
2022-12-01T22:24:47.611Z,101580.20
2022-12-01T22:30:00.754Z,101581.60
2022-12-01T22:35:37.927Z,101573.40
2022-12-01T22:40:55.855Z,101579.80
2022-12-01T22:46:34.455Z,101574.60
2022-12-01T22:51:50.247Z,101567.20
2022-12-01T22:57:13.025Z,101571.20
2022-12-01T23:02:31.100Z,101560.20
2022-12-01T23:07:43.883Z,101554.20
2022-12-01T23:12:56.397Z,101553.40
2022-12-01T23:18:16.224Z,101555.60
2022-12-01T23:23:32.348Z,101551.60
2022-12-01T23:28:42.728Z,101549.20
2022-12-01T23:33:52.148Z,101550.80
2022-12-01T23:39:08.572Z,101547.80
2022-12-01T23:44:26.299Z,101541.00
2022-12-01T23:49:38.113Z,101533.40
2022-12-01T23:54:48.338Z,101541.40
